This is the latest recevied weather packets stored in our database for station/object WB3IGR. If no packets are shown the sender has not sent any weather packets the latest 10 day(s).
| Time | Temp. | Humidity | Pressure | Rain* | Wind** | Luminosity | Snow |
|---|---|---|---|---|---|---|---|
| 1778216764 | 10° C | 73% | 1013.2 hPa | 0 mm | - | 0 W/m² | - |
| 1778216463 | 10.56° C | 71% | 1013.2 hPa | 0 mm | - | 0 W/m² | - |
| 1778216158 | 11.11° C | 68% | 1013.2 hPa | 0 mm | - | 0 W/m² | - |
| 1778215856 | 10.56° C | 67% | 1013 hPa | 0 mm | - | 0 W/m² | - |
| 1778215553 | 10.56° C | 70% | 1012.8 hPa | 0 mm | - | 0 W/m² | - |
| 1778215249 | 10.56° C | 68% | 1012.3 hPa | 0 mm | - | 0 W/m² | - |
| 1778214946 | 10.56° C | 69% | 1012.1 hPa | 0 mm | - | 0 W/m² | - |
| 1778214644 | 11.11° C | 67% | 1011.8 hPa | 0 mm | - | 0 W/m² | - |
| 1778214340 | 10.56° C | 67% | 1011.9 hPa | 0 mm | - | 0 W/m² | - |
| 1778214037 | 10.56° C | 68% | 1011.8 hPa | 0 mm | - | 0 W/m² | - |
| 1778213733 | 11.11° C | 67% | 1011.8 hPa | 0 mm | - | 0 W/m² | - |
| 1778213430 | 11.67° C | 64% | 1011.8 hPa | 0 mm | - | 0 W/m² | - |
| 1778213127 | 12.22° C | 62% | 1011.7 hPa | 0 mm | - | 0 W/m² | - |
| 1778212825 | 12.78° C | 59% | 1011.7 hPa | 0 mm | - | 0 W/m² | - |
| 1778212521 | 12.22° C | 62% | 1011.6 hPa | 0 mm | - | 0 W/m² | - |
| 1778212219 | 12.22° C | 62% | 1011.6 hPa | 0 mm | - | 0 W/m² | - |
| 1778211916 | 12.22° C | 60% | 1011.7 hPa | 0 mm | - | 0 W/m² | - |
| 1778211612 | 12.78° C | 59% | 1011.5 hPa | 0 mm | - | 0 W/m² | - |
| 1778211310 | 12.78° C | 59% | 1011.4 hPa | 0 mm | - | 0 W/m² | - |
| 1778211008 | 12.78° C | 59% | 1011.5 hPa | 0 mm | - | 0 W/m² | - |
| 1778210704 | 12.22° C | 61% | 1011.4 hPa | 0 mm | - | 0 W/m² | - |
| 1778210402 | 11.67° C | 63% | 1011.3 hPa | 0 mm | - | 0 W/m² | - |
| 1778210099 | 12.22° C | 63% | 1011.3 hPa | 0 mm | - | 0 W/m² | - |
| 1778209794 | 11.67° C | 63% | 1011.1 hPa | 0 mm | - | 0 W/m² | - |
| 1778209492 | 12.22° C | 64% | 1011.1 hPa | 0 mm | - | 0 W/m² | - |
* Rain latest hour (hover to see other rain measurements)
** Current wind speed in m/s (hover to see current wind gust speed)